createdAt,value
2023-09-27T00:00:09.793Z,14.70
2023-09-27T00:02:40.746Z,14.70
2023-09-27T00:05:11.385Z,14.70
2023-09-27T00:07:42.084Z,14.60
2023-09-27T00:10:11.414Z,14.50
2023-09-27T00:12:39.952Z,14.50
2023-09-27T00:15:09.436Z,14.60
2023-09-27T00:17:37.113Z,14.60
2023-09-27T00:20:06.991Z,14.60
2023-09-27T00:22:34.327Z,14.60
2023-09-27T00:25:02.221Z,14.70
2023-09-27T00:27:29.516Z,14.60
2023-09-27T00:29:56.861Z,14.50
2023-09-27T00:32:24.313Z,14.40
2023-09-27T00:34:51.725Z,14.30
2023-09-27T00:37:18.987Z,14.20
2023-09-27T00:39:46.304Z,14.20
2023-09-27T00:42:14.119Z,14.30
2023-09-27T00:44:41.898Z,14.20
2023-09-27T00:47:09.318Z,14.10
2023-09-27T00:49:37.516Z,14.10
2023-09-27T00:52:05.960Z,14.00
2023-09-27T00:54:35.455Z,14.00
2023-09-27T00:57:04.818Z,14.00
2023-09-27T00:59:32.494Z,14.00
2023-09-27T01:02:00.145Z,14.00
2023-09-27T01:04:27.706Z,14.00
2023-09-27T01:06:55.175Z,13.90
2023-09-27T01:09:22.945Z,13.80
2023-09-27T01:11:50.473Z,13.80
2023-09-27T01:14:18.016Z,13.80
2023-09-27T01:16:45.380Z,13.90
2023-09-27T01:19:13.798Z,14.00
2023-09-27T01:21:41.157Z,13.90
2023-09-27T01:24:10.731Z,13.90
2023-09-27T01:26:38.849Z,14.00
2023-09-27T01:29:07.333Z,14.00
2023-09-27T01:31:35.368Z,14.00
2023-09-27T01:34:02.660Z,14.00
2023-09-27T01:36:30.192Z,14.00
2023-09-27T01:38:57.481Z,14.00
2023-09-27T01:41:24.818Z,14.00
2023-09-27T01:43:52.942Z,14.00
2023-09-27T01:46:20.312Z,14.00
2023-09-27T01:48:49.299Z,14.00
2023-09-27T01:51:16.658Z,13.80
2023-09-27T01:53:44.006Z,13.80
2023-09-27T01:56:11.403Z,13.90
2023-09-27T01:58:38.785Z,13.90
2023-09-27T02:01:06.157Z,14.00
2023-09-27T02:03:34.058Z,14.00
2023-09-27T02:06:02.268Z,13.90
2023-09-27T02:08:29.697Z,13.90
2023-09-27T02:10:57.028Z,13.80
2023-09-27T02:13:24.327Z,13.80
2023-09-27T02:15:51.630Z,13.80
2023-09-27T02:18:18.971Z,13.90
2023-09-27T02:20:46.812Z,13.90
2023-09-27T02:23:14.145Z,13.90
2023-09-27T02:25:41.567Z,13.90
2023-09-27T02:28:09.446Z,13.80
2023-09-27T02:30:36.870Z,13.60
2023-09-27T02:33:04.336Z,13.60
2023-09-27T02:35:31.680Z,13.70
2023-09-27T02:37:59.115Z,13.70
2023-09-27T02:40:26.548Z,13.60
2023-09-27T02:42:55.013Z,13.60
2023-09-27T02:45:22.415Z,13.60
2023-09-27T02:47:49.737Z,13.50
2023-09-27T02:50:17.365Z,13.50
2023-09-27T02:52:45.383Z,13.50
2023-09-27T02:55:13.432Z,13.60
2023-09-27T02:57:41.078Z,13.60
2023-09-27T03:00:09.674Z,13.60
2023-09-27T03:02:38.395Z,13.70
2023-09-27T03:05:08.636Z,13.60
2023-09-27T03:07:36.275Z,13.70
2023-09-27T03:10:05.684Z,13.70
2023-09-27T03:12:33.651Z,13.70
2023-09-27T03:15:01.066Z,13.80
2023-09-27T03:17:28.768Z,13.70
2023-09-27T03:19:56.332Z,13.60
2023-09-27T03:22:23.679Z,13.60
2023-09-27T03:24:52.224Z,13.50
2023-09-27T03:27:19.886Z,13.50
2023-09-27T03:29:48.054Z,13.40
2023-09-27T03:32:15.470Z,13.40
2023-09-27T03:34:42.779Z,13.40
2023-09-27T03:37:10.802Z,13.60
2023-09-27T03:39:38.206Z,13.60
2023-09-27T03:42:05.893Z,13.50
2023-09-27T03:44:35.015Z,13.50
2023-09-27T03:47:04.247Z,13.50
2023-09-27T03:49:31.672Z,13.50
2023-09-27T03:51:59.163Z,13.40
2023-09-27T03:54:26.860Z,13.30
2023-09-27T03:56:55.480Z,13.10
2023-09-27T03:59:23.689Z,13.10
2023-09-27T04:01:52.468Z,13.10
2023-09-27T04:04:20.090Z,13.10
2023-09-27T04:06:47.462Z,13.10
2023-09-27T04:09:15.121Z,13.00
2023-09-27T04:11:42.529Z,12.80
2023-09-27T04:14:10.068Z,12.70
2023-09-27T04:16:37.347Z,12.70
2023-09-27T04:19:04.974Z,12.80
2023-09-27T04:21:32.483Z,12.90
2023-09-27T04:24:00.906Z,13.00
2023-09-27T04:26:28.467Z,12.90
2023-09-27T04:28:55.894Z,12.80
2023-09-27T04:31:23.332Z,12.90
2023-09-27T04:34:02.730Z,12.90
2023-09-27T04:36:31.963Z,12.90
2023-09-27T04:38:59.486Z,13.00
2023-09-27T04:41:26.878Z,13.00
2023-09-27T04:43:54.274Z,13.00
2023-09-27T04:46:21.596Z,12.90
2023-09-27T04:48:48.933Z,12.90
2023-09-27T04:51:16.273Z,12.80
2023-09-27T04:53:43.678Z,12.80
2023-09-27T04:56:13.930Z,12.80
2023-09-27T04:58:44.145Z,12.80
2023-09-27T05:01:12.207Z,12.60
2023-09-27T05:03:40.200Z,12.70
2023-09-27T05:06:08.152Z,12.70
2023-09-27T05:08:35.632Z,12.80
2023-09-27T05:11:03.146Z,12.80
2023-09-27T05:13:30.640Z,12.80
2023-09-27T05:15:58.009Z,12.80
2023-09-27T05:18:25.497Z,12.80
2023-09-27T05:20:52.968Z,12.80
2023-09-27T05:23:20.327Z,12.70
2023-09-27T05:25:48.328Z,12.80
2023-09-27T05:28:16.553Z,12.90
2023-09-27T05:30:44.152Z,12.80
2023-09-27T05:33:11.532Z,12.80
2023-09-27T05:35:38.888Z,12.70
2023-09-27T05:38:06.318Z,12.80
2023-09-27T05:40:33.759Z,12.90
2023-09-27T05:43:03.046Z,12.90
2023-09-27T05:45:30.397Z,12.90
2023-09-27T05:47:57.831Z,12.90
2023-09-27T05:50:25.267Z,12.90
2023-09-27T05:52:53.144Z,13.00
2023-09-27T05:55:21.254Z,13.10
2023-09-27T05:57:50.906Z,13.10
2023-09-27T06:00:27.801Z,13.20
2023-09-27T06:02:55.644Z,13.30
2023-09-27T06:05:23.485Z,13.30
2023-09-27T06:07:51.055Z,13.50
2023-09-27T06:10:18.624Z,13.50
2023-09-27T06:12:46.028Z,13.60
2023-09-27T06:15:14.145Z,13.70
2023-09-27T06:17:43.351Z,13.80
2023-09-27T06:20:17.256Z,13.80
2023-09-27T06:22:46.796Z,13.80
2023-09-27T06:25:14.982Z,13.90
2023-09-27T06:27:43.891Z,13.90
2023-09-27T06:30:12.873Z,14.10
2023-09-27T06:32:40.313Z,14.20
2023-09-27T06:35:13.953Z,14.40
2023-09-27T06:37:44.838Z,14.50
2023-09-27T06:40:17.722Z,14.60
2023-09-27T06:42:46.649Z,14.80
2023-09-27T06:45:14.889Z,15.00
2023-09-27T06:47:43.520Z,15.10
2023-09-27T06:50:11.371Z,15.20
2023-09-27T06:52:41.026Z,15.40
2023-09-27T06:55:13.051Z,15.50
2023-09-27T06:57:53.418Z,15.70
2023-09-27T07:00:25.287Z,15.80
2023-09-27T07:02:53.630Z,15.90
2023-09-27T07:05:25.039Z,16.10
2023-09-27T07:07:54.350Z,16.10
2023-09-27T07:10:24.167Z,16.20
2023-09-27T07:12:51.577Z,16.50
2023-09-27T07:15:20.296Z,16.70
2023-09-27T07:17:50.019Z,16.90
2023-09-27T07:20:35.620Z,17.00
2023-09-27T07:23:07.682Z,17.10
2023-09-27T07:25:38.688Z,17.30
2023-09-27T07:28:07.352Z,17.30
2023-09-27T07:30:35.298Z,17.40
2023-09-27T07:33:12.945Z,17.30
2023-09-27T07:35:45.304Z,17.50
2023-09-27T07:38:13.032Z,17.70
2023-09-27T07:40:40.597Z,17.90
2023-09-27T07:43:08.013Z,18.00
2023-09-27T07:45:37.708Z,18.10
2023-09-27T07:48:05.613Z,18.30
2023-09-27T07:50:35.390Z,18.40
2023-09-27T07:53:07.486Z,18.50
2023-09-27T07:55:44.320Z,18.60
2023-09-27T07:58:13.858Z,18.70
2023-09-27T08:00:42.117Z,18.90
2023-09-27T08:03:10.099Z,19.20
2023-09-27T08:05:47.648Z,19.30
2023-09-27T08:08:15.528Z,19.40
2023-09-27T08:10:48.343Z,19.40
2023-09-27T08:13:17.315Z,19.60
2023-09-27T08:15:48.036Z,19.90
2023-09-27T08:18:16.738Z,20.00
2023-09-27T08:20:44.458Z,19.90
2023-09-27T08:23:12.620Z,19.90
2023-09-27T08:25:40.245Z,20.00
2023-09-27T08:28:08.005Z,20.10
2023-09-27T08:30:35.535Z,20.20
2023-09-27T08:33:03.295Z,20.50
2023-09-27T08:35:31.360Z,20.50
2023-09-27T08:37:59.068Z,20.30
2023-09-27T08:40:26.956Z,20.60
2023-09-27T08:42:59.342Z,20.70
2023-09-27T08:45:28.298Z,20.80
2023-09-27T08:47:56.056Z,21.00
2023-09-27T08:50:25.778Z,21.00
2023-09-27T08:52:53.512Z,21.10
2023-09-27T08:55:21.308Z,21.20
2023-09-27T08:57:51.232Z,21.60
2023-09-27T09:00:22.894Z,21.70
2023-09-27T09:02:58.544Z,22.00
2023-09-27T09:05:29.189Z,22.30
2023-09-27T09:07:58.282Z,22.60
2023-09-27T09:10:25.623Z,22.60
2023-09-27T09:12:53.434Z,22.90
2023-09-27T09:15:48.417Z,23.10
2023-09-27T09:18:30.149Z,23.20
2023-09-27T09:21:00.937Z,23.10
2023-09-27T09:23:35.965Z,23.20
2023-09-27T09:26:11.102Z,23.40
2023-09-27T09:28:58.679Z,23.50
2023-09-27T09:31:28.605Z,23.50
2023-09-27T09:34:12.095Z,23.60
2023-09-27T09:36:39.516Z,23.60
2023-09-27T09:39:18.496Z,23.80
2023-09-27T09:41:50.765Z,24.00
2023-09-27T09:44:23.175Z,24.00
2023-09-27T09:46:52.984Z,24.30
2023-09-27T09:49:21.775Z,24.60
2023-09-27T09:51:51.179Z,24.60
2023-09-27T09:54:29.503Z,24.80
2023-09-27T09:57:10.077Z,24.80
2023-09-27T09:59:57.346Z,24.80
2023-09-27T10:02:28.835Z,24.80
2023-09-27T10:05:00.238Z,24.70
2023-09-27T10:07:29.973Z,24.90
2023-09-27T10:09:58.402Z,25.20
2023-09-27T10:12:27.410Z,25.40
2023-09-27T10:14:55.565Z,25.60
2023-09-27T10:17:24.464Z,25.50
2023-09-27T10:20:14.105Z,25.60
2023-09-27T10:22:44.453Z,26.00
2023-09-27T10:25:28.088Z,26.20
2023-09-27T10:28:09.484Z,26.40
2023-09-27T10:30:42.686Z,26.60
2023-09-27T10:33:16.259Z,26.50
2023-09-27T10:35:43.813Z,26.30
2023-09-27T10:38:12.295Z,26.00
2023-09-27T10:40:47.182Z,26.10
2023-09-27T10:43:36.478Z,26.30
2023-09-27T10:46:05.629Z,26.60
2023-09-27T10:48:33.319Z,26.80
2023-09-27T10:51:00.996Z,26.50
2023-09-27T10:53:28.418Z,26.50
2023-09-27T10:55:56.025Z,26.00
2023-09-27T10:58:23.311Z,25.70
2023-09-27T11:00:52.491Z,25.80
2023-09-27T11:03:20.482Z,25.70
2023-09-27T11:05:48.822Z,25.80
2023-09-27T11:08:26.312Z,26.10
2023-09-27T11:10:57.107Z,26.40
2023-09-27T11:13:25.483Z,27.10
2023-09-27T11:15:53.118Z,27.20
2023-09-27T11:18:20.694Z,27.60
2023-09-27T11:20:48.375Z,28.10
2023-09-27T11:23:15.809Z,28.00
2023-09-27T11:25:44.818Z,28.40
2023-09-27T11:28:18.513Z,28.20
2023-09-27T11:30:46.037Z,27.90
2023-09-27T11:33:18.042Z,27.40
2023-09-27T11:35:50.524Z,27.10
2023-09-27T11:38:18.012Z,26.60
2023-09-27T11:40:46.307Z,26.30
2023-09-27T11:43:14.116Z,26.00
2023-09-27T11:45:46.524Z,25.80
2023-09-27T11:48:14.784Z,25.70
2023-09-27T11:50:42.368Z,25.80
2023-09-27T11:53:10.010Z,26.00
2023-09-27T11:55:37.659Z,26.40
2023-09-27T11:58:04.973Z,26.70
2023-09-27T12:00:33.255Z,26.80
2023-09-27T12:03:00.801Z,27.00
2023-09-27T12:05:28.982Z,27.30
2023-09-27T12:07:56.689Z,27.60
2023-09-27T12:10:24.183Z,27.70
2023-09-27T12:12:51.541Z,28.00
2023-09-27T12:15:18.956Z,28.40
2023-09-27T12:17:46.359Z,28.60
2023-09-27T12:20:32.055Z,28.90
2023-09-27T12:23:05.086Z,29.10
2023-09-27T12:25:34.396Z,29.50
2023-09-27T12:28:02.429Z,29.70
2023-09-27T12:30:29.678Z,29.70
2023-09-27T12:32:57.244Z,29.60
2023-09-27T12:35:24.794Z,29.80
2023-09-27T12:37:52.202Z,29.70
2023-09-27T12:40:19.657Z,30.00
2023-09-27T12:42:47.081Z,29.90
2023-09-27T12:45:14.645Z,29.90
2023-09-27T12:47:42.783Z,30.40
2023-09-27T12:50:10.477Z,30.50
2023-09-27T12:52:38.215Z,30.50
2023-09-27T12:55:06.545Z,30.90
2023-09-27T12:57:34.143Z,30.90
2023-09-27T13:00:02.214Z,31.00
2023-09-27T13:02:32.508Z,31.20
2023-09-27T13:05:00.112Z,31.50
2023-09-27T13:07:28.315Z,31.60
2023-09-27T13:09:55.756Z,31.60
2023-09-27T13:12:23.095Z,31.50
2023-09-27T13:14:50.585Z,31.20
2023-09-27T13:17:18.095Z,31.00
2023-09-27T13:19:46.000Z,31.00
2023-09-27T13:22:13.353Z,31.30
2023-09-27T13:24:42.901Z,31.90
2023-09-27T13:27:10.572Z,32.60
2023-09-27T13:29:40.452Z,33.30
2023-09-27T13:32:07.898Z,33.70
2023-09-27T13:34:36.938Z,33.40
2023-09-27T13:37:04.296Z,33.00
2023-09-27T13:39:31.737Z,33.00
2023-09-27T13:41:59.118Z,32.50
2023-09-27T13:44:27.880Z,32.10
2023-09-27T13:46:55.366Z,31.80
2023-09-27T13:49:22.840Z,31.50
2023-09-27T13:51:50.159Z,31.10
2023-09-27T13:54:17.526Z,30.50
2023-09-27T13:56:44.931Z,30.20
2023-09-27T13:59:12.299Z,30.30
2023-09-27T14:01:40.173Z,30.80
2023-09-27T14:04:08.693Z,32.00
2023-09-27T14:06:36.068Z,33.50
2023-09-27T14:09:03.707Z,34.50
2023-09-27T14:11:31.188Z,34.40
2023-09-27T14:13:58.579Z,34.20
2023-09-27T14:16:26.542Z,34.50
2023-09-27T14:18:54.184Z,34.70
2023-09-27T14:21:21.915Z,34.40
2023-09-27T14:23:50.084Z,34.40
2023-09-27T14:26:20.365Z,34.50
2023-09-27T14:28:48.029Z,34.90
2023-09-27T14:31:18.027Z,35.50
2023-09-27T14:33:45.728Z,35.90
2023-09-27T14:36:13.483Z,36.40
2023-09-27T14:38:40.952Z,37.00
2023-09-27T14:41:11.360Z,37.50
2023-09-27T14:43:40.216Z,37.40
2023-09-27T14:46:12.115Z,37.50
2023-09-27T14:48:40.446Z,37.00
2023-09-27T14:51:12.951Z,36.50
2023-09-27T14:53:42.340Z,36.70
2023-09-27T14:56:10.880Z,37.00
2023-09-27T14:58:38.577Z,36.40
2023-09-27T15:01:06.250Z,35.20
2023-09-27T15:03:34.516Z,35.50
2023-09-27T15:06:06.829Z,36.30
2023-09-27T15:08:34.936Z,36.90
2023-09-27T15:11:04.316Z,36.90
2023-09-27T15:13:32.703Z,36.90
2023-09-27T15:16:02.310Z,36.20
2023-09-27T15:18:30.639Z,35.90
2023-09-27T15:20:58.172Z,36.00
2023-09-27T15:23:26.677Z,36.10
2023-09-27T15:25:54.176Z,36.10
2023-09-27T15:28:21.636Z,36.10
2023-09-27T15:30:49.286Z,36.30
2023-09-27T15:33:16.801Z,36.40
2023-09-27T15:35:57.445Z,36.00
2023-09-27T15:38:28.135Z,35.60
2023-09-27T15:40:56.078Z,35.20
2023-09-27T15:43:23.782Z,34.90
2023-09-27T15:46:04.095Z,34.70
2023-09-27T15:48:34.895Z,34.60
2023-09-27T15:51:11.578Z,34.30
2023-09-27T15:53:39.634Z,33.70
2023-09-27T15:56:08.852Z,33.10
2023-09-27T15:58:36.507Z,32.60
2023-09-27T16:01:05.347Z,32.00
2023-09-27T16:03:33.462Z,31.60
2023-09-27T16:06:03.719Z,31.20
2023-09-27T16:08:33.278Z,30.90
2023-09-27T16:11:02.306Z,30.50
2023-09-27T16:13:29.842Z,30.00
2023-09-27T16:15:57.582Z,29.60
2023-09-27T16:18:24.958Z,29.20
2023-09-27T16:20:52.709Z,28.80
2023-09-27T16:23:20.229Z,28.50
2023-09-27T16:25:48.066Z,28.20
2023-09-27T16:28:16.627Z,27.90
2023-09-27T16:30:44.421Z,27.70
2023-09-27T16:33:13.219Z,27.40
2023-09-27T16:35:41.344Z,27.20
2023-09-27T16:38:10.723Z,27.00
2023-09-27T16:40:40.178Z,26.90
2023-09-27T16:43:07.784Z,26.70
2023-09-27T16:45:37.826Z,26.60
2023-09-27T16:48:05.754Z,26.40
2023-09-27T16:50:33.247Z,26.20
2023-09-27T16:53:00.721Z,26.10
2023-09-27T16:55:28.320Z,26.00
2023-09-27T16:57:55.885Z,25.80
2023-09-27T17:00:24.536Z,25.50
2023-09-27T17:02:57.100Z,25.40
2023-09-27T17:05:27.850Z,25.10
2023-09-27T17:07:55.753Z,24.90
2023-09-27T17:10:23.881Z,24.80
2023-09-27T17:12:51.381Z,24.70
2023-09-27T17:15:20.895Z,24.50
2023-09-27T17:17:48.446Z,24.50
2023-09-27T17:20:16.169Z,24.40
2023-09-27T17:22:44.154Z,24.30
2023-09-27T17:25:12.499Z,24.20
2023-09-27T17:27:40.711Z,24.20
2023-09-27T17:30:08.890Z,24.10
2023-09-27T17:32:38.883Z,24.10
2023-09-27T17:35:07.295Z,24.00
2023-09-27T17:37:35.756Z,24.00
2023-09-27T17:40:10.466Z,23.90
2023-09-27T17:42:39.208Z,23.80
2023-09-27T17:45:09.391Z,23.70
2023-09-27T17:47:37.378Z,23.60
2023-09-27T17:50:05.130Z,23.70
2023-09-27T17:52:32.603Z,23.70
2023-09-27T17:54:59.921Z,23.70
2023-09-27T17:57:27.207Z,23.70
2023-09-27T17:59:54.591Z,23.60
2023-09-27T18:02:21.993Z,23.60
2023-09-27T18:04:49.434Z,23.50
2023-09-27T18:07:18.110Z,23.50
2023-09-27T18:09:45.454Z,23.50
2023-09-27T18:12:13.374Z,23.40
2023-09-27T18:14:40.771Z,23.40
2023-09-27T18:17:08.392Z,23.50
2023-09-27T18:19:35.696Z,23.40
2023-09-27T18:22:03.634Z,23.40
2023-09-27T18:24:31.008Z,23.20
2023-09-27T18:26:58.844Z,23.20
2023-09-27T18:29:26.345Z,23.10
2023-09-27T18:34:20.937Z,22.90
2023-09-27T18:36:49.424Z,22.80
2023-09-27T18:39:16.650Z,22.80
2023-09-27T18:41:44.462Z,22.70
2023-09-27T18:44:12.964Z,22.60
2023-09-27T18:46:41.946Z,22.50
2023-09-27T18:49:09.471Z,22.50
2023-09-27T18:51:36.938Z,22.50
2023-09-27T18:54:05.069Z,22.40
2023-09-27T18:56:32.708Z,22.10
2023-09-27T18:59:00.126Z,22.00
2023-09-27T19:01:28.741Z,21.80
2023-09-27T19:03:56.461Z,21.70
2023-09-27T19:06:25.219Z,21.60
2023-09-27T19:08:55.073Z,21.60
2023-09-27T19:11:22.660Z,21.50
2023-09-27T19:13:50.385Z,21.40
2023-09-27T19:16:17.820Z,21.30
2023-09-27T19:18:45.507Z,21.30
2023-09-27T19:21:13.471Z,21.30
2023-09-27T19:23:41.537Z,21.30
2023-09-27T19:26:13.192Z,21.10
2023-09-27T19:28:41.560Z,21.00
2023-09-27T19:31:10.071Z,21.00
2023-09-27T19:33:42.780Z,20.90
2023-09-27T19:36:21.120Z,20.90
2023-09-27T19:38:49.500Z,20.90
2023-09-27T19:41:16.998Z,20.80
2023-09-27T19:43:45.465Z,20.70
2023-09-27T19:46:13.123Z,20.50
2023-09-27T19:48:45.308Z,20.30
2023-09-27T19:51:23.680Z,20.20
2023-09-27T19:53:53.068Z,20.10
2023-09-27T19:56:22.465Z,20.00
2023-09-27T19:58:50.280Z,20.00
2023-09-27T20:01:38.414Z,19.90
2023-09-27T20:04:06.177Z,19.90
2023-09-27T20:06:37.617Z,19.90
2023-09-27T20:09:05.059Z,19.80
2023-09-27T20:11:32.435Z,19.90
2023-09-27T20:14:00.064Z,20.00
2023-09-27T20:16:28.873Z,20.00
2023-09-27T20:18:56.233Z,20.00
2023-09-27T20:21:23.586Z,20.00
2023-09-27T20:23:50.920Z,19.80
2023-09-27T20:26:18.247Z,19.70
2023-09-27T20:28:45.714Z,19.70
2023-09-27T20:31:15.067Z,19.60
2023-09-27T20:33:42.445Z,19.50
2023-09-27T20:36:13.833Z,19.50
2023-09-27T20:38:41.705Z,19.50
2023-09-27T20:41:12.375Z,19.40
2023-09-27T20:43:39.787Z,19.40
2023-09-27T20:46:14.858Z,19.40
2023-09-27T20:48:42.441Z,19.30
2023-09-27T20:51:10.902Z,19.30
2023-09-27T20:53:38.560Z,19.30
2023-09-27T20:56:06.943Z,19.30
2023-09-27T20:58:35.055Z,19.10
2023-09-27T21:01:07.926Z,19.10
2023-09-27T21:03:36.577Z,19.00
2023-09-27T21:06:05.162Z,18.90
2023-09-27T21:08:33.263Z,18.80
2023-09-27T21:11:00.582Z,18.70
2023-09-27T21:13:28.398Z,18.70
2023-09-27T21:15:55.778Z,18.60
2023-09-27T21:18:23.163Z,18.60
2023-09-27T21:20:50.469Z,18.60
2023-09-27T21:23:17.851Z,18.60
2023-09-27T21:25:45.145Z,18.50
2023-09-27T21:28:12.481Z,18.60
2023-09-27T21:30:39.773Z,18.50
2023-09-27T21:33:07.064Z,18.50
2023-09-27T21:35:34.487Z,18.50
2023-09-27T21:38:02.328Z,18.50
2023-09-27T21:40:29.648Z,18.50
2023-09-27T21:42:58.383Z,18.40
2023-09-27T21:45:25.706Z,18.50
2023-09-27T21:47:53.056Z,18.40
2023-09-27T21:50:20.396Z,18.50
2023-09-27T21:52:47.697Z,18.50
2023-09-27T21:55:15.071Z,18.40
2023-09-27T21:57:43.017Z,18.20
2023-09-27T22:00:20.876Z,18.10
2023-09-27T22:02:48.899Z,18.00
2023-09-27T22:05:16.393Z,17.90
2023-09-27T22:07:45.427Z,17.80
2023-09-27T22:10:12.836Z,17.80
2023-09-27T22:12:40.410Z,17.70
2023-09-27T22:15:10.655Z,17.80
2023-09-27T22:17:39.065Z,17.90
2023-09-27T22:20:15.689Z,17.90
2023-09-27T22:22:44.802Z,17.80
2023-09-27T22:25:14.940Z,17.80
2023-09-27T22:27:50.241Z,17.80
2023-09-27T22:30:17.524Z,17.80
2023-09-27T22:32:46.256Z,17.70
2023-09-27T22:35:23.518Z,17.50
2023-09-27T22:37:51.624Z,17.50
2023-09-27T22:40:21.145Z,17.50
2023-09-27T22:42:50.345Z,17.50
2023-09-27T22:45:29.157Z,17.50
2023-09-27T22:48:00.938Z,17.50
2023-09-27T22:50:31.924Z,17.30
2023-09-27T22:52:59.613Z,17.10
2023-09-27T22:55:30.277Z,17.10
2023-09-27T22:57:57.755Z,17.00
2023-09-27T23:00:26.318Z,16.90
2023-09-27T23:02:56.625Z,16.80
2023-09-27T23:05:34.201Z,16.80
2023-09-27T23:08:13.245Z,16.80
2023-09-27T23:10:41.337Z,16.70
2023-09-27T23:13:29.705Z,16.80
2023-09-27T23:15:58.488Z,16.80
2023-09-27T23:18:28.749Z,16.80
2023-09-27T23:21:00.312Z,16.90
2023-09-27T23:23:37.285Z,17.00
2023-09-27T23:26:04.622Z,17.00
2023-09-27T23:28:41.391Z,17.00
2023-09-27T23:31:10.002Z,16.90
2023-09-27T23:33:42.789Z,16.80
2023-09-27T23:36:25.095Z,16.80
2023-09-27T23:38:59.519Z,16.70
2023-09-27T23:41:31.760Z,16.70
2023-09-27T23:44:09.857Z,16.60
2023-09-27T23:46:41.049Z,16.50
2023-09-27T23:49:17.057Z,16.30
2023-09-27T23:51:44.483Z,16.30
2023-09-27T23:54:11.791Z,16.10
2023-09-27T23:56:39.947Z,16.10
2023-09-27T23:59:20.681Z,16.10
